Time;durP1;ratioP1;P1;durP2;ratioP2;P2;SDS_P1;SDS_P2;PMS_P1;PMS_P2;Temp;Humidity;BMP_temperature;BMP_pressure;BME280_temperature;BME280_humidity;BME280_pressure;Samples;Min_cycle;Max_cycle;Signal;HPM_P1;HPM_P2
2023/04/11 00:00:19;;;;;;;0.00;0.00;;;9.40;84.00;;;;;;5041510;28;20561;-61
2023/04/11 00:02:45;;;;;;;0.20;0.20;;;9.40;84.00;;;;;;5046392;28;20078;-60
2023/04/11 00:05:11;;;;;;;0.00;0.00;;;9.20;84.00;;;;;;5051352;28;20072;-61
2023/04/11 00:07:37;;;;;;;2.38;2.17;;;9.20;84.10;;;;;;5039916;28;20049;-60
2023/04/11 00:10:03;;;;;;;0.10;0.10;;;9.10;84.10;;;;;;5047346;28;20091;-60
2023/04/11 00:12:29;;;;;;;0.63;0.63;;;9.10;84.20;;;;;;5050388;28;20597;-61
2023/04/11 00:14:54;;;;;;;0.00;0.00;;;9.00;84.20;;;;;;5023054;28;20072;-60
2023/04/11 00:17:20;;;;;;;0.00;0.00;;;8.90;84.30;;;;;;5045213;28;20040;-61
2023/04/11 00:19:47;;;;;;;0.00;0.00;;;8.80;84.70;;;;;;5047842;28;20489;-61
2023/04/11 00:22:14;;;;;;;0.00;0.00;;;8.80;84.70;;;;;;5048110;28;20063;-60
2023/04/11 00:24:40;;;;;;;0.40;0.40;;;8.70;84.80;;;;;;5038505;28;20515;-61
2023/04/11 00:27:06;;;;;;;0.00;0.00;;;8.70;84.70;;;;;;5048613;28;20120;-61
2023/04/11 00:29:33;;;;;;;0.10;0.10;;;8.70;84.80;;;;;;5050660;28;20068;-61
2023/04/11 00:31:59;;;;;;;0.70;0.70;;;8.60;84.80;;;;;;5046148;28;20088;-60
2023/04/11 00:34:26;;;;;;;0.00;0.00;;;8.60;84.80;;;;;;5038673;28;20041;-61
2023/04/11 00:36:51;;;;;;;0.20;0.20;;;8.60;84.80;;;;;;5051079;28;20080;-60
2023/04/11 00:39:17;;;;;;;0.00;0.00;;;8.60;84.80;;;;;;5050997;28;20463;-60
2023/04/11 00:41:43;;;;;;;0.00;0.00;;;8.50;84.80;;;;;;5032975;28;20036;-60
2023/04/11 00:44:10;;;;;;;0.00;0.00;;;8.60;84.80;;;;;;5050658;28;20037;-60
2023/04/11 00:46:36;;;;;;;0.00;0.00;;;8.50;84.90;;;;;;5050958;28;20045;-61
2023/04/11 00:49:01;;;;;;;15.70;3.50;;;8.50;85.10;;;;;;5050413;28;20456;-60
2023/04/11 00:51:27;;;;;;;0.00;0.00;;;8.50;85.30;;;;;;5050448;28;20040;-60
2023/04/11 00:53:53;;;;;;;0.00;0.00;;;8.50;85.40;;;;;;5050678;28;20063;-59
2023/04/11 00:56:19;;;;;;;0.00;0.00;;;8.60;85.50;;;;;;5050315;28;20052;-60
2023/04/11 00:58:45;;;;;;;0.00;0.00;;;8.50;85.40;;;;;;5050520;28;20061;-60
2023/04/11 01:01:10;;;;;;;0.15;0.15;;;8.60;85.70;;;;;;5046359;28;20056;-61
2023/04/11 01:03:38;;;;;;;0.00;0.00;;;8.60;85.60;;;;;;5045007;28;20094;-60
2023/04/11 01:06:08;;;;;;;0.47;0.47;;;8.60;86.10;;;;;;5050443;28;20040;-60
2023/04/11 01:08:36;;;;;;;0.00;0.00;;;8.60;86.30;;;;;;5050335;28;20044;-60
2023/04/11 01:11:02;;;;;;;0.10;0.10;;;8.50;86.60;;;;;;5047874;28;20137;-60
2023/04/11 01:13:32;;;;;;;0.00;0.00;;;8.50;86.80;;;;;;5045519;28;20675;-60
2023/04/11 01:15:58;;;;;;;0.93;0.65;;;8.40;87.10;;;;;;5046436;28;20186;-60
2023/04/11 01:18:25;;;;;;;0.00;0.00;;;8.30;87.20;;;;;;5047184;28;20045;-60
2023/04/11 01:20:51;;;;;;;0.32;0.32;;;8.30;87.20;;;;;;5049930;28;20044;-60
2023/04/11 01:23:24;;;;;;;0.00;0.00;;;8.20;87.40;;;;;;5032143;28;20178;-60
2023/04/11 01:25:50;;;;;;;0.00;0.00;;;8.20;87.50;;;;;;5049638;28;20037;-60
2023/04/11 01:28:18;;;;;;;0.00;0.00;;;8.20;87.40;;;;;;5045919;28;20036;-61
2023/04/11 01:30:44;;;;;;;0.00;0.00;;;8.20;87.60;;;;;;5048906;28;20451;-61
2023/04/11 01:33:10;;;;;;;0.00;0.00;;;8.10;87.90;;;;;;5049901;28;20115;-60
2023/04/11 01:35:36;;;;;;;0.00;0.00;;;8.10;88.20;;;;;;5049385;28;20159;-60
2023/04/11 01:38:02;;;;;;;0.00;0.00;;;8.10;88.20;;;;;;5048079;28;20112;-61
2023/04/11 01:40:30;;;;;;;0.00;0.00;;;8.10;88.30;;;;;;5038892;28;20796;-60
2023/04/11 01:42:56;;;;;;;0.55;0.55;;;8.10;88.40;;;;;;5044037;28;20143;-61
2023/04/11 01:45:21;;;;;;;0.00;0.00;;;8.00;88.40;;;;;;5049737;28;20490;-60
2023/04/11 01:47:47;;;;;;;0.00;0.00;;;8.10;88.30;;;;;;5049641;28;20485;-60
2023/04/11 01:50:12;;;;;;;0.00;0.00;;;8.10;88.20;;;;;;5048728;28;20048;-60
2023/04/11 01:52:38;;;;;;;0.00;0.00;;;8.00;88.20;;;;;;5048281;28;20045;-60
2023/04/11 01:55:04;;;;;;;0.00;0.00;;;8.00;88.10;;;;;;5047574;28;20044;-61
2023/04/11 01:57:30;;;;;;;0.00;0.00;;;8.00;88.20;;;;;;5049239;28;20486;-61
2023/04/11 01:59:55;;;;;;;0.00;0.00;;;8.10;88.10;;;;;;5049024;28;20060;-61
2023/04/11 02:02:21;;;;;;;0.00;0.00;;;8.00;88.20;;;;;;5048771;28;20130;-61
2023/04/11 02:04:46;;;;;;;0.00;0.00;;;8.00;88.30;;;;;;5048671;28;20033;-61
2023/04/11 02:07:12;;;;;;;0.10;0.10;;;8.00;88.40;;;;;;5028965;28;20075;-61
2023/04/11 02:09:37;;;;;;;0.03;0.03;;;8.00;88.50;;;;;;5047216;28;20045;-61
2023/04/11 02:12:03;;;;;;;0.00;0.00;;;7.90;88.90;;;;;;5020464;28;20072;-61
2023/04/11 02:14:41;;;;;;;0.10;0.10;;;7.90;89.00;;;;;;5040356;28;20043;-61
2023/04/11 02:17:08;;;;;;;0.00;0.00;;;8.00;88.90;;;;;;5047043;28;20045;-61
2023/04/11 02:19:40;;;;;;;0.00;0.00;;;8.00;89.00;;;;;;5048202;28;20115;-60
2023/04/11 02:22:07;;;;;;;0.00;0.00;;;8.00;89.10;;;;;;5042974;28;20471;-61
2023/04/11 02:24:33;;;;;;;0.00;0.00;;;8.00;89.10;;;;;;5030446;28;20071;-60
2023/04/11 02:27:00;;;;;;;0.00;0.00;;;8.00;89.40;;;;;;5028106;28;20486;-60
2023/04/11 02:29:26;;;;;;;0.00;0.00;;;8.00;89.50;;;;;;5046184;28;20136;-60
2023/04/11 02:31:52;;;;;;;0.00;0.00;;;8.00;89.40;;;;;;5030796;28;20092;-60
2023/04/11 02:34:18;;;;;;;0.00;0.00;;;8.10;89.50;;;;;;5048383;28;20557;-60
2023/04/11 02:36:44;;;;;;;0.00;0.00;;;8.10;89.50;;;;;;5048833;28;20140;-60
2023/04/11 02:39:10;;;;;;;0.00;0.00;;;8.10;89.60;;;;;;5044498;28;20033;-60
2023/04/11 02:41:40;;;;;;;0.00;0.00;;;8.20;89.80;;;;;;5048015;28;20083;-60
2023/04/11 02:44:06;;;;;;;0.00;0.00;;;8.20;89.60;;;;;;5049060;28;20065;-60
2023/04/11 02:46:31;;;;;;;0.00;0.00;;;8.10;89.60;;;;;;5048883;28;20516;-60
2023/04/11 02:48:57;;;;;;;0.00;0.00;;;8.20;89.60;;;;;;5048712;28;20048;-60
2023/04/11 02:51:22;;;;;;;0.00;0.00;;;8.20;89.50;;;;;;5050563;28;20041;-60
2023/04/11 02:53:48;;;;;;;0.00;0.00;;;8.20;89.40;;;;;;5034346;28;20191;-61
2023/04/11 02:56:17;;;;;;;0.00;0.00;;;8.30;89.30;;;;;;5052751;28;20397;-61
2023/04/11 02:58:44;;;;;;;0.43;0.43;;;8.30;89.00;;;;;;5052482;28;20060;-61
2023/04/11 03:01:10;;;;;;;0.00;0.00;;;8.30;88.90;;;;;;5051908;28;20044;-61
2023/04/11 03:03:37;;;;;;;0.00;0.00;;;8.30;88.50;;;;;;5050781;28;20084;-60
2023/04/11 03:06:05;;;;;;;0.00;0.00;;;8.40;88.10;;;;;;5052160;28;20048;-60
2023/04/11 03:08:31;;;;;;;0.00;0.00;;;8.40;87.90;;;;;;5052721;28;20061;-60
2023/04/11 03:10:57;;;;;;;0.00;0.00;;;8.40;87.50;;;;;;5051815;28;20045;-60
2023/04/11 03:13:22;;;;;;;0.00;0.00;;;8.40;87.20;;;;;;5034401;28;20045;-60
2023/04/11 03:15:48;;;;;;;0.77;0.77;;;8.40;87.10;;;;;;5051129;28;20045;-61
2023/04/11 03:18:13;;;;;;;2.55;1.38;;;8.40;86.80;;;;;;5051761;28;20068;-60
2023/04/11 03:20:39;;;;;;;0.00;0.00;;;8.40;86.80;;;;;;5052086;28;20040;-60
2023/04/11 03:23:05;;;;;;;0.00;0.00;;;8.40;86.70;;;;;;5038440;28;20494;-60
2023/04/11 03:25:30;;;;;;;0.00;0.00;;;8.40;86.80;;;;;;5042848;28;20056;-60
2023/04/11 03:27:56;;;;;;;0.00;0.00;;;8.40;86.80;;;;;;5052283;28;20045;-60
2023/04/11 03:30:21;;;;;;;0.00;0.00;;;8.30;86.90;;;;;;5049211;28;20075;-60
2023/04/11 03:32:47;;;;;;;0.00;0.00;;;8.30;87.20;;;;;;5034261;28;20061;-61
2023/04/11 03:35:13;;;;;;;0.00;0.00;;;8.40;87.40;;;;;;5051632;28;20401;-60
2023/04/11 03:37:39;;;;;;;0.00;0.00;;;8.30;87.20;;;;;;5046451;28;20057;-60
2023/04/11 03:40:07;;;;;;;0.80;0.80;;;8.40;87.00;;;;;;5046607;28;20902;-60
2023/04/11 03:42:34;;;;;;;0.00;0.00;;;8.40;86.90;;;;;;5051757;28;20037;-60
2023/04/11 03:45:00;;;;;;;0.00;0.00;;;8.40;86.50;;;;;;5051544;28;20087;-60
2023/04/11 03:47:25;;;;;;;0.00;0.00;;;8.40;86.20;;;;;;5052247;28;20456;-61
2023/04/11 03:49:51;;;;;;;0.00;0.00;;;8.40;85.70;;;;;;5051401;28;20044;-60
2023/04/11 03:52:17;;;;;;;0.00;0.00;;;8.40;86.10;;;;;;5050961;28;20068;-60
2023/04/11 03:54:42;;;;;;;0.10;0.10;;;8.40;86.20;;;;;;5043368;28;20042;-60
2023/04/11 03:57:08;;;;;;;0.00;0.00;;;8.40;86.40;;;;;;5051379;28;20123;-60
2023/04/11 03:59:34;;;;;;;0.32;0.32;;;8.40;86.20;;;;;;5049686;28;20417;-61
2023/04/11 04:02:00;;;;;;;0.00;0.00;;;8.40;85.70;;;;;;5050153;28;20079;-60
2023/04/11 04:04:25;;;;;;;0.00;0.00;;;8.40;85.80;;;;;;5051146;28;20044;-61
2023/04/11 04:06:55;;;;;;;0.10;0.10;;;8.40;85.40;;;;;;5033455;28;20056;-60
2023/04/11 04:09:22;;;;;;;0.00;0.00;;;8.30;85.30;;;;;;5047879;28;20095;-60
2023/04/11 04:11:47;;;;;;;0.00;0.00;;;8.30;85.40;;;;;;5051118;28;20037;-61
2023/04/11 04:14:13;;;;;;;0.90;0.90;;;8.30;85.30;;;;;;5051134;28;20552;-60
2023/04/11 04:16:38;;;;;;;0.17;0.17;;;8.30;85.60;;;;;;5051267;28;20580;-60
2023/04/11 04:19:04;;;;;;;0.00;0.00;;;8.20;85.30;;;;;;5041526;28;20087;-60
2023/04/11 04:21:31;;;;;;;0.00;0.00;;;8.20;85.30;;;;;;5050545;28;20090;-60
2023/04/11 04:24:02;;;;;;;0.40;0.40;;;8.20;85.30;;;;;;5051044;28;20041;-60
2023/04/11 04:26:28;;;;;;;0.00;0.00;;;8.10;85.70;;;;;;5050791;28;20128;-60
2023/04/11 04:28:56;;;;;;;33.67;1.17;;;8.20;85.50;;;;;;5051129;28;20041;-61
2023/04/11 04:31:24;;;;;;;0.00;0.00;;;8.10;85.50;;;;;;5050949;28;20049;-60
2023/04/11 04:33:50;;;;;;;0.00;0.00;;;8.10;85.60;;;;;;5035166;28;20052;-60
2023/04/11 04:36:19;;;;;;;0.00;0.00;;;8.10;85.70;;;;;;5048781;28;20038;-60
2023/04/11 04:38:44;;;;;;;0.00;0.00;;;8.10;86.00;;;;;;5046455;28;20036;-61
2023/04/11 04:41:14;;;;;;;0.00;0.00;;;8.10;86.20;;;;;;5045413;28;20425;-60
2023/04/11 04:43:41;;;;;;;0.77;0.77;;;8.10;86.20;;;;;;5031682;28;20057;-60
2023/04/11 04:46:07;;;;;;;0.00;0.00;;;8.10;86.20;;;;;;5020787;28;20505;-61
2023/04/11 04:48:32;;;;;;;0.00;0.00;;;8.10;86.20;;;;;;5048356;28;20051;-61
2023/04/11 04:50:58;;;;;;;0.00;0.00;;;8.10;86.30;;;;;;5036818;28;20076;-60
2023/04/11 04:53:23;;;;;;;0.00;0.00;;;8.10;86.20;;;;;;5039666;28;20037;-61
2023/04/11 04:55:49;;;;;;;0.00;0.00;;;8.20;85.70;;;;;;5031337;28;20565;-61
2023/04/11 04:58:15;;;;;;;0.00;0.00;;;8.20;85.80;;;;;;5037609;28;20072;-61
2023/04/11 05:00:40;;;;;;;0.00;0.00;;;8.30;85.60;;;;;;5042446;28;20045;-60
2023/04/11 05:03:07;;;;;;;0.10;0.10;;;8.20;85.20;;;;;;5045907;28;20460;-61
2023/04/11 05:05:33;;;;;;;0.00;0.00;;;8.20;85.10;;;;;;5042120;28;20054;-60
2023/04/11 05:07:58;;;;;;;0.00;0.00;;;8.20;85.30;;;;;;5029460;28;20417;-61
2023/04/11 05:10:24;;;;;;;0.00;0.00;;;8.30;85.10;;;;;;5033466;28;20088;-62
2023/04/11 05:12:52;;;;;;;0.47;0.47;;;8.30;84.60;;;;;;5046855;28;20127;-61
2023/04/11 05:15:17;;;;;;;0.00;0.00;;;8.30;84.90;;;;;;5047022;28;20049;-60
2023/04/11 05:17:43;;;;;;;0.00;0.00;;;8.30;84.50;;;;;;5029131;28;20087;-61
2023/04/11 05:20:09;;;;;;;0.00;0.00;;;8.20;84.90;;;;;;5040110;28;20102;-61
2023/04/11 05:22:36;;;;;;;0.00;0.00;;;8.30;85.00;;;;;;5022548;28;20455;-60
2023/04/11 05:25:02;;;;;;;0.00;0.00;;;8.20;84.90;;;;;;5032541;28;20056;-61
2023/04/11 05:27:28;;;;;;;0.95;0.95;;;8.20;84.80;;;;;;5036360;28;20045;-61
2023/04/11 05:29:53;;;;;;;0.00;0.00;;;8.20;84.70;;;;;;5044281;28;20052;-61
2023/04/11 05:32:19;;;;;;;0.05;0.05;;;8.20;84.60;;;;;;5043019;28;20091;-61
2023/04/11 05:34:52;;;;;;;0.00;0.00;;;8.30;84.20;;;;;;5022840;28;20063;-61
2023/04/11 05:37:18;;;;;;;0.00;0.00;;;8.20;84.20;;;;;;5044406;28;20044;-61
2023/04/11 05:39:44;;;;;;;0.00;0.00;;;8.30;84.30;;;;;;5037059;28;20041;-61
2023/04/11 05:42:10;;;;;;;0.00;0.00;;;8.30;84.40;;;;;;5041207;28;20409;-61
2023/04/11 05:44:35;;;;;;;0.00;0.00;;;8.30;84.40;;;;;;5035121;28;20072;-61
2023/04/11 05:47:01;;;;;;;0.10;0.10;;;8.40;84.40;;;;;;5045712;28;20037;-61
2023/04/11 05:49:26;;;;;;;0.00;0.00;;;8.30;84.60;;;;;;5044170;28;20033;-61
2023/04/11 05:51:52;;;;;;;0.00;0.00;;;8.40;84.60;;;;;;5041286;28;20037;-61
2023/04/11 05:54:37;;;;;;;0.00;0.00;;;8.30;84.50;;;;;;5025304;28;20049;-61
2023/04/11 05:57:03;;;;;;;0.40;0.40;;;8.30;84.00;;;;;;5036934;28;20057;-60
2023/04/11 05:59:31;;;;;;;0.00;0.00;;;8.40;83.80;;;;;;5033858;28;20053;-60
2023/04/11 06:01:57;;;;;;;0.00;0.00;;;8.40;83.50;;;;;;5045335;28;20074;-60
2023/04/11 06:04:23;;;;;;;0.00;0.00;;;8.40;83.10;;;;;;5049081;28;20114;-61
2023/04/11 06:06:50;;;;;;;0.00;0.00;;;8.40;83.20;;;;;;5044739;28;20049;-60
2023/04/11 06:09:16;;;;;;;0.00;0.00;;;8.40;83.10;;;;;;5039284;28;20116;-61
2023/04/11 06:11:42;;;;;;;0.00;0.00;;;8.30;83.30;;;;;;5032175;28;20525;-61
2023/04/11 06:14:07;;;;;;;0.65;0.65;;;8.30;83.30;;;;;;5011093;28;20084;-62
2023/04/11 06:16:35;;;;;;;0.00;0.00;;;8.40;83.10;;;;;;5011710;28;20049;-61
2023/04/11 06:19:02;;;;;;;0.20;0.20;;;8.40;83.10;;;;;;5029715;28;20049;-61
2023/04/11 06:21:27;;;;;;;0.00;0.00;;;8.40;82.90;;;;;;5029332;28;20067;-61
2023/04/11 06:23:53;;;;;;;0.00;0.00;;;8.30;82.90;;;;;;5011348;28;20461;-61
2023/04/11 06:26:19;;;;;;;0.00;0.00;;;8.40;82.30;;;;;;5029375;28;20067;-63
2023/04/11 06:28:44;;;;;;;0.00;0.00;;;8.40;81.90;;;;;;5047056;28;20071;-61
2023/04/11 06:31:10;;;;;;;0.00;0.00;;;8.40;81.60;;;;;;5022467;28;20415;-61
2023/04/11 06:33:36;;;;;;;0.22;0.22;;;8.30;81.40;;;;;;5036054;28;20041;-62
2023/04/11 06:36:02;;;;;;;0.00;0.00;;;8.40;81.50;;;;;;5034093;28;20133;-61
2023/04/11 06:38:27;;;;;;;12.63;2.08;;;8.40;81.30;;;;;;5036049;28;20120;-62
2023/04/11 06:40:55;;;;;;;0.00;0.00;;;8.50;81.60;;;;;;5038073;28;20570;-62
2023/04/11 06:43:21;;;;;;;0.00;0.00;;;8.50;81.80;;;;;;5035579;28;20053;-62
2023/04/11 06:45:48;;;;;;;0.00;0.00;;;8.50;81.50;;;;;;5037539;28;20037;-62
2023/04/11 06:48:16;;;;;;;0.22;0.22;;;8.40;81.10;;;;;;5035525;28;20049;-62
2023/04/11 06:50:44;;;;;;;2.28;1.17;;;8.40;81.20;;;;;;5037319;28;20102;-62
2023/04/11 06:53:10;;;;;;;0.00;0.00;;;8.40;81.20;;;;;;5030630;28;20050;-61
2023/04/11 06:55:35;;;;;;;0.00;0.00;;;8.50;81.00;;;;;;5035497;28;20048;-61
2023/04/11 06:58:01;;;;;;;0.00;0.00;;;8.40;80.90;;;;;;5033811;28;20096;-61
2023/04/11 07:00:26;;;;;;;0.00;0.00;;;8.40;81.00;;;;;;5035579;28;20041;-62
2023/04/11 07:02:52;;;;;;;0.00;0.00;;;8.50;80.60;;;;;;5034786;28;20052;-60
2023/04/11 07:05:18;;;;;;;0.00;0.00;;;8.60;80.70;;;;;;5035500;28;20037;-62
2023/04/11 07:07:44;;;;;;;0.00;0.00;;;8.60;80.60;;;;;;5034502;28;20037;-61
2023/04/11 07:10:09;;;;;;;0.00;0.00;;;8.60;80.10;;;;;;5038572;28;20106;-63
2023/04/11 07:12:35;;;;;;;0.28;0.28;;;8.60;79.30;;;;;;5019160;28;20092;-62
2023/04/11 07:15:02;;;;;;;0.00;0.00;;;8.70;79.50;;;;;;5019455;28;20057;-62
2023/04/11 07:17:28;;;;;;;0.85;0.85;;;8.60;79.70;;;;;;5036549;28;20060;-61
2023/04/11 07:19:53;;;;;;;0.00;0.00;;;8.60;79.80;;;;;;5036262;28;20038;-62
2023/04/11 07:22:19;;;;;;;0.25;0.25;;;8.60;79.30;;;;;;5030980;28;20048;-62
2023/04/11 07:24:45;;;;;;;0.00;0.00;;;8.70;78.90;;;;;;5037029;28;20844;-62
2023/04/11 07:27:12;;;;;;;1.77;1.15;;;8.70;79.10;;;;;;5036651;28;20045;-63
2023/04/11 07:29:39;;;;;;;0.00;0.00;;;8.70;78.40;;;;;;5033364;28;20461;-63
2023/04/11 07:32:05;;;;;;;0.10;0.10;;;8.80;78.60;;;;;;5036356;28;20038;-62
2023/04/11 07:34:32;;;;;;;0.00;0.00;;;8.70;78.30;;;;;;5037033;28;20051;-63
2023/04/11 07:36:59;;;;;;;0.00;0.00;;;8.70;78.10;;;;;;5034909;28;20554;-63
2023/04/11 07:39:26;;;;;;;0.03;0.03;;;8.70;78.80;;;;;;5039913;28;20124;-63
2023/04/11 07:41:52;;;;;;;4.40;0.85;;;8.60;77.30;;;;;;5039165;28;20033;-64
2023/04/11 07:44:18;;;;;;;0.10;0.10;;;8.60;78.30;;;;;;5040884;28;20068;-63
2023/04/11 07:46:44;;;;;;;0.10;0.10;;;8.70;78.40;;;;;;5038784;28;20037;-64
2023/04/11 07:49:09;;;;;;;0.00;0.00;;;8.80;78.30;;;;;;5039728;28;20071;-64
2023/04/11 07:51:35;;;;;;;0.00;0.00;;;8.80;77.80;;;;;;5039197;28;20036;-63
2023/04/11 07:54:00;;;;;;;0.00;0.00;;;8.80;76.50;;;;;;5021269;28;20039;-64
2023/04/11 07:56:26;;;;;;;0.35;0.35;;;8.80;76.40;;;;;;5039724;28;20103;-63
2023/04/11 07:58:51;;;;;;;0.00;0.00;;;8.80;76.30;;;;;;5038986;28;20062;-64
2023/04/11 08:01:25;;;;;;;0.00;0.00;;;8.80;76.40;;;;;;5037567;28;20572;-63
2023/04/11 08:03:52;;;;;;;0.00;0.00;;;8.90;76.50;;;;;;5022321;28;20045;-63
2023/04/11 08:06:18;;;;;;;0.00;0.00;;;8.90;75.90;;;;;;5040857;28;20068;-64
2023/04/11 08:08:45;;;;;;;0.00;0.00;;;9.00;76.60;;;;;;5039417;28;20061;-63
2023/04/11 08:11:11;;;;;;;0.00;0.00;;;9.00;76.50;;;;;;5039153;28;20037;-63
2023/04/11 08:13:37;;;;;;;0.00;0.00;;;9.10;76.00;;;;;;5039298;28;20079;-64
2023/04/11 08:16:05;;;;;;;0.00;0.00;;;9.00;75.60;;;;;;5018862;28;20087;-62
2023/04/11 08:18:31;;;;;;;0.10;0.10;;;9.00;75.10;;;;;;5039536;28;20122;-63
2023/04/11 08:20:57;;;;;;;0.00;0.00;;;9.10;74.70;;;;;;5035597;28;20044;-63
2023/04/11 08:23:23;;;;;;;0.00;0.00;;;9.20;73.70;;;;;;5021774;28;20388;-61
2023/04/11 08:25:49;;;;;;;0.00;0.00;;;9.10;73.70;;;;;;5020272;28;20493;-62
2023/04/11 08:28:14;;;;;;;0.00;0.00;;;9.10;75.80;;;;;;5038744;28;20048;-61
2023/04/11 08:30:40;;;;;;;0.10;0.10;;;9.10;76.50;;;;;;5021402;28;20512;-62
2023/04/11 08:33:08;;;;;;;0.00;0.00;;;9.10;77.00;;;;;;5038786;28;20076;-62
2023/04/11 08:35:33;;;;;;;0.00;0.00;;;9.30;76.70;;;;;;5039219;28;20041;-62
2023/04/11 08:37:59;;;;;;;1.25;1.17;;;9.30;76.50;;;;;;5039224;28;20037;-63
2023/04/11 08:40:25;;;;;;;0.00;0.00;;;9.20;76.20;;;;;;5040331;28;20037;-62
2023/04/11 08:42:58;;;;;;;0.00;0.00;;;9.10;75.80;;;;;;5038807;28;20114;-62
2023/04/11 08:45:23;;;;;;;0.00;0.00;;;9.00;76.10;;;;;;5040316;28;20037;-62
2023/04/11 08:47:49;;;;;;;0.00;0.00;;;9.00;76.60;;;;;;5038362;28;20041;-62
2023/04/11 08:50:14;;;;;;;0.05;0.05;;;9.00;76.70;;;;;;5038202;28;20042;-63
2023/04/11 08:52:42;;;;;;;0.00;0.00;;;9.00;77.30;;;;;;5039552;28;20041;-62
2023/04/11 08:55:08;;;;;;;0.10;0.10;;;9.00;77.20;;;;;;5021172;28;20513;-62
2023/04/11 08:57:36;;;;;;;0.00;0.00;;;9.10;77.50;;;;;;5039266;28;20033;-63
2023/04/11 09:00:13;;;;;;;0.00;0.00;;;9.00;75.70;;;;;;5038018;28;20065;-62
2023/04/11 09:02:57;;;;;;;0.00;0.00;;;9.00;76.60;;;;;;5037686;28;20053;-61
2023/04/11 09:05:34;;;;;;;0.10;0.10;;;9.00;77.60;;;;;;5039146;28;20041;-62
2023/04/11 09:08:06;;;;;;;0.13;0.13;;;8.90;77.90;;;;;;5020213;28;20152;-62
2023/04/11 09:10:32;;;;;;;0.00;0.00;;;9.00;77.80;;;;;;5039273;28;20053;-62
2023/04/11 09:12:58;;;;;;;0.00;0.00;;;9.10;79.10;;;;;;5037777;28;20049;-63
2023/04/11 09:15:30;;;;;;;0.00;0.00;;;9.10;80.20;;;;;;5036320;28;20132;-63
2023/04/11 09:17:56;;;;;;;;;;;9.10;80.30;;;;;;5039732;28;20049;-62
2023/04/11 09:20:25;;;;;;;0.00;0.00;;;9.10;81.10;;;;;;5037917;28;19927;-62
2023/04/11 09:22:53;;;;;;;0.00;0.00;;;9.10;80.10;;;;;;5038513;28;20037;-62
2023/04/11 09:25:21;;;;;;;0.00;0.00;;;9.00;79.40;;;;;;5038341;28;20102;-63
2023/04/11 09:27:48;;;;;;;0.00;0.00;;;8.90;78.70;;;;;;5036684;28;20041;-62
2023/04/11 09:30:21;;;;;;;1.42;0.90;;;8.90;79.00;;;;;;5035952;28;20057;-62
2023/04/11 09:32:47;;;;;;;0.00;0.00;;;8.90;79.30;;;;;;5037167;28;20033;-61
2023/04/11 09:35:19;;;;;;;0.00;0.00;;;9.00;80.60;;;;;;5036803;28;20044;-62
2023/04/11 09:37:48;;;;;;;0.10;0.10;;;9.30;79.60;;;;;;5034854;28;20513;-61
2023/04/11 09:40:16;;;;;;;0.00;0.00;;;9.40;79.80;;;;;;5038337;28;20041;-62
2023/04/11 09:42:42;;;;;;;0.75;0.75;;;9.60;79.10;;;;;;5037419;28;20034;-61
2023/04/11 09:45:21;;;;;;;0.00;0.00;;;9.70;77.40;;;;;;5037667;28;21335;-62
2023/04/11 09:47:49;;;;;;;0.00;0.00;;;9.90;77.20;;;;;;5037535;28;20048;-62
2023/04/11 09:50:15;;;;;;;0.00;0.00;;;10.00;76.30;;;;;;5037365;28;20055;-61
2023/04/11 09:52:43;;;;;;;0.00;0.00;;;10.00;75.30;;;;;;5036328;28;20037;-62
2023/04/11 09:55:11;;;;;;;0.00;0.00;;;9.90;75.30;;;;;;5019462;28;20059;-62
2023/04/11 09:57:44;;;;;;;0.00;0.00;;;10.00;76.60;;;;;;5018640;28;20044;-61
2023/04/11 10:00:20;;;;;;;0.00;0.00;;;10.00;74.60;;;;;;5035869;28;20421;-61
2023/04/11 10:02:48;;;;;;;0.00;0.00;;;10.10;74.50;;;;;;5038745;28;20049;-61
2023/04/11 10:05:18;;;;;;;0.00;0.00;;;10.10;75.40;;;;;;5037205;28;20068;-62
2023/04/11 10:07:51;;;;;;;0.00;0.00;;;10.10;75.20;;;;;;5035736;28;20516;-61
2023/04/11 10:10:19;;;;;;;0.00;0.00;;;9.90;73.20;;;;;;5038191;28;20050;-61
2023/04/11 10:12:44;;;;;;;0.00;0.00;;;10.00;73.60;;;;;;5037682;28;20417;-62
2023/04/11 10:15:11;;;;;;;0.08;0.08;;;10.20;73.50;;;;;;5037551;28;20049;-63
2023/04/11 10:17:38;;;;;;;0.00;0.00;;;10.10;73.00;;;;;;5034417;28;20444;-62
2023/04/11 10:20:30;;;;;;;0.03;0.03;;;10.20;73.60;;;;;;5019980;28;20059;-61
2023/04/11 10:22:59;;;;;;;0.00;0.00;;;10.20;72.80;;;;;;5037440;28;20045;-62
2023/04/11 10:25:25;;;;;;;0.00;0.00;;;10.30;72.40;;;;;;5036164;28;20117;-62
2023/04/11 10:28:05;;;;;;;0.00;0.00;;;10.20;72.70;;;;;;5036697;28;20037;-62
2023/04/11 10:30:39;;;;;;;0.00;0.00;;;10.00;73.20;;;;;;5037203;28;20076;-61
2023/04/11 10:33:16;;;;;;;0.20;0.20;;;9.90;73.30;;;;;;5037527;28;20040;-62
2023/04/11 10:36:05;;;;;;;0.17;0.17;;;9.80;74.60;;;;;;5035673;28;20052;-62
2023/04/11 10:38:42;;;;;;;0.00;0.00;;;9.70;75.30;;;;;;5037346;28;20037;-62
2023/04/11 10:41:40;;;;;;;0.00;0.00;;;9.60;77.90;;;;;;5033095;28;20033;-61
2023/04/11 10:44:19;;;;;;;0.13;0.13;;;9.40;79.10;;;;;;5018607;28;20115;-61
2023/04/11 10:46:47;;;;;;;0.03;0.03;;;9.20;78.60;;;;;;5036198;28;20417;-61
2023/04/11 10:49:30;;;;;;;0.00;0.00;;;9.30;76.50;;;;;;5038116;28;20079;-61
2023/04/11 10:52:20;;;;;;;0.10;0.10;;;9.60;76.10;;;;;;5037017;28;20064;-62
2023/04/11 10:54:46;;;;;;;0.75;0.75;;;9.60;75.50;;;;;;5037330;28;20400;-62
2023/04/11 10:57:12;;;;;;;0.00;0.00;;;9.80;76.10;;;;;;5037199;28;20516;-62
2023/04/11 10:59:38;;;;;;;0.10;0.10;;;9.90;73.40;;;;;;5020063;28;20053;-62
2023/04/11 11:02:03;;;;;;;0.10;0.10;;;10.00;73.10;;;;;;5037920;28;20835;-62
2023/04/11 11:04:30;;;;;;;0.00;0.00;;;9.90;71.80;;;;;;5034071;28;20049;-62
2023/04/11 11:06:57;;;;;;;0.00;0.00;;;9.90;71.60;;;;;;5037832;28;20053;-63
2023/04/11 11:09:23;;;;;;;0.00;0.00;;;10.00;72.00;;;;;;5038228;28;20074;-63
2023/04/11 11:12:07;;;;;;;0.00;0.00;;;10.10;71.40;;;;;;5038786;28;20044;-62
2023/04/11 11:14:33;;;;;;;0.15;0.15;;;10.10;69.90;;;;;;5041568;28;20847;-62
2023/04/11 11:16:59;;;;;;;0.00;0.00;;;10.10;70.40;;;;;;5037804;28;20067;-62
2023/04/11 11:19:25;;;;;;;0.00;0.00;;;10.00;69.70;;;;;;5040807;28;20168;-62
2023/04/11 11:21:51;;;;;;;0.00;0.00;;;10.00;69.50;;;;;;5037510;28;20060;-61
2023/04/11 11:24:24;;;;;;;0.00;0.00;;;9.90;69.50;;;;;;5040874;28;20041;-61
2023/04/11 11:26:52;;;;;;;0.00;0.00;;;9.80;69.90;;;;;;5040391;28;20079;-61
2023/04/11 11:29:39;;;;;;;0.32;0.32;;;9.80;70.30;;;;;;5040637;28;20046;-63
2023/04/11 11:32:05;;;;;;;0.00;0.00;;;9.60;71.40;;;;;;5041051;28;20040;-61
2023/04/11 11:34:33;;;;;;;0.30;0.30;;;9.70;71.60;;;;;;5040148;28;20041;-62
2023/04/11 11:37:00;;;;;;;0.00;0.00;;;9.90;70.90;;;;;;5039500;28;20045;-62
2023/04/11 11:39:27;;;;;;;1.35;1.25;;;10.00;71.30;;;;;;5041137;28;20045;-61
2023/04/11 11:41:54;;;;;;;0.10;0.10;;;10.20;71.20;;;;;;5039937;28;20049;-62
2023/04/11 11:44:25;;;;;;;0.45;0.45;;;10.10;70.70;;;;;;5040631;28;20053;-62
2023/04/11 11:47:08;;;;;;;0.00;0.00;;;10.00;69.90;;;;;;5019973;28;20049;-62
2023/04/11 11:49:49;;;;;;;0.08;0.08;;;10.00;70.40;;;;;;5041085;28;20045;-62
2023/04/11 11:52:40;;;;;;;0.00;0.00;;;10.10;69.00;;;;;;5024409;28;20051;-62
2023/04/11 11:55:18;;;;;;;0.00;0.00;;;10.00;69.50;;;;;;5021895;28;20037;-62
2023/04/11 11:57:47;;;;;;;0.25;0.25;;;10.00;69.60;;;;;;5037493;28;20038;-61
2023/04/11 12:00:14;;;;;;;0.00;0.00;;;10.00;68.90;;;;;;5040297;28;20688;-61
2023/04/11 12:02:43;;;;;;;0.47;0.47;;;10.00;68.80;;;;;;5040238;28;20783;-61
2023/04/11 12:05:12;;;;;;;0.25;0.22;;;9.90;70.70;;;;;;5039574;28;20040;-61
2023/04/11 12:07:37;;;;;;;0.00;0.00;;;9.90;70.30;;;;;;5034251;28;20065;-61
2023/04/11 12:10:10;;;;;;;0.00;0.00;;;9.80;70.30;;;;;;5040272;28;20049;-61
2023/04/11 12:12:40;;;;;;;0.00;0.00;;;9.80;71.90;;;;;;5036584;28;20436;-61
2023/04/11 12:15:14;;;;;;;0.00;0.00;;;9.80;70.20;;;;;;5021870;28;20835;-61
2023/04/11 12:17:40;;;;;;;0.00;0.00;;;10.00;69.90;;;;;;5039592;28;20048;-62
2023/04/11 12:20:07;;;;;;;0.00;0.00;;;10.10;68.60;;;;;;5039287;28;20045;-61
2023/04/11 12:22:36;;;;;;;0.00;0.00;;;10.30;70.70;;;;;;5039154;28;20052;-61
2023/04/11 12:25:13;;;;;;;0.10;0.10;;;10.40;69.20;;;;;;5038651;28;20041;-62
2023/04/11 12:27:41;;;;;;;0.00;0.00;;;10.50;67.40;;;;;;5036312;28;20040;-62
2023/04/11 12:30:11;;;;;;;0.15;0.15;;;10.60;67.20;;;;;;5038467;28;20048;-62
2023/04/11 12:32:37;;;;;;;0.00;0.00;;;10.60;66.40;;;;;;5016378;28;20053;-62
2023/04/11 12:35:05;;;;;;;0.00;0.00;;;10.60;66.10;;;;;;5033371;28;20508;-61
2023/04/11 12:37:31;;;;;;;0.00;0.00;;;10.40;67.30;;;;;;5035020;28;20049;-61
2023/04/11 12:39:57;;;;;;;0.00;0.00;;;10.40;68.10;;;;;;5036716;28;20127;-62
2023/04/11 12:42:22;;;;;;;0.00;0.00;;;10.30;67.70;;;;;;5039708;28;20069;-62
2023/04/11 12:44:49;;;;;;;0.25;0.20;;;10.20;66.70;;;;;;5036148;28;20033;-62
2023/04/11 12:47:15;;;;;;;0.00;0.00;;;10.10;67.60;;;;;;5038695;28;20045;-62
2023/04/11 12:49:41;;;;;;;0.35;0.35;;;10.30;68.90;;;;;;5038681;28;20048;-61
2023/04/11 12:52:08;;;;;;;0.00;0.00;;;10.60;68.10;;;;;;5037845;28;20055;-62
2023/04/11 12:54:34;;;;;;;0.00;0.00;;;10.80;66.80;;;;;;5038632;28;20405;-63
2023/04/11 12:57:00;;;;;;;0.38;0.38;;;11.00;66.50;;;;;;5037993;28;20053;-62